sensor_id;sensor_type;location;lat;lon;timestamp;pressure;altitude;pressure_sealevel;temperature;humidity
63321;BME280;49449;48.800;9.534;2022-09-09T00:01:48;98211.31;;;15.80;41.21
63321;BME280;49449;48.800;9.534;2022-09-09T00:04:21;98200.16;;;15.78;41.10
63321;BME280;49449;48.800;9.534;2022-09-09T00:06:58;98206.56;;;15.77;40.99
63321;BME280;49449;48.800;9.534;2022-09-09T00:09:29;98209.25;;;15.66;41.03
63321;BME280;49449;48.800;9.534;2022-09-09T00:12:02;98212.44;;;15.68;41.26
63321;BME280;49449;48.800;9.534;2022-09-09T00:14:37;98215.88;;;15.69;41.02
63321;BME280;49449;48.800;9.534;2022-09-09T00:17:18;98208.41;;;15.71;41.40
63321;BME280;49449;48.800;9.534;2022-09-09T00:19:52;98209.75;;;15.74;40.88
63321;BME280;49449;48.800;9.534;2022-09-09T00:22:26;98211.06;;;15.71;40.97
63321;BME280;49449;48.800;9.534;2022-09-09T00:24:56;98211.91;;;15.71;41.01
63321;BME280;49449;48.800;9.534;2022-09-09T00:27:33;98203.34;;;15.69;41.07
63321;BME280;49449;48.800;9.534;2022-09-09T00:30:14;98210.03;;;15.67;41.42
63321;BME280;49449;48.800;9.534;2022-09-09T00:32:45;98200.97;;;15.68;41.31
63321;BME280;49449;48.800;9.534;2022-09-09T00:35:22;98194.59;;;15.59;41.21
63321;BME280;49449;48.800;9.534;2022-09-09T00:37:54;98193.53;;;15.55;41.48
63321;BME280;49449;48.800;9.534;2022-09-09T00:40:28;98189.56;;;15.52;41.22
63321;BME280;49449;48.800;9.534;2022-09-09T00:43:16;98191.41;;;15.57;41.53
63321;BME280;49449;48.800;9.534;2022-09-09T00:48:56;98196.47;;;15.53;41.08
63321;BME280;49449;48.800;9.534;2022-09-09T00:51:34;98189.03;;;15.45;41.65
63321;BME280;49449;48.800;9.534;2022-09-09T00:54:16;98193.53;;;15.44;41.36
63321;BME280;49449;48.800;9.534;2022-09-09T00:56:56;98210.03;;;15.46;41.37
63321;BME280;49449;48.800;9.534;2022-09-09T00:59:32;98200.47;;;15.45;41.33
63321;BME280;49449;48.800;9.534;2022-09-09T01:02:07;98199.13;;;15.53;41.34
63321;BME280;49449;48.800;9.534;2022-09-09T01:04:41;98199.66;;;15.55;41.20
63321;BME280;49449;48.800;9.534;2022-09-09T01:07:15;98200.22;;;15.52;41.63
63321;BME280;49449;48.800;9.534;2022-09-09T01:09:52;98197.03;;;15.40;41.52
63321;BME280;49449;48.800;9.534;2022-09-09T01:12:28;98200.47;;;15.40;41.85
63321;BME280;49449;48.800;9.534;2022-09-09T01:15:07;98209.00;;;15.47;41.52
63321;BME280;49449;48.800;9.534;2022-09-09T01:17:44;98204.72;;;15.51;41.36
63321;BME280;49449;48.800;9.534;2022-09-09T01:20:15;98203.66;;;15.52;41.43
63321;BME280;49449;48.800;9.534;2022-09-09T01:22:57;98215.91;;;15.48;41.50
63321;BME280;49449;48.800;9.534;2022-09-09T01:28:33;98208.72;;;15.49;41.53
63321;BME280;49449;48.800;9.534;2022-09-09T01:31:04;98214.31;;;15.52;41.40
63321;BME280;49449;48.800;9.534;2022-09-09T01:33:34;98209.25;;;15.51;41.81
63321;BME280;49449;48.800;9.534;2022-09-09T01:36:05;98220.16;;;15.49;41.79
63321;BME280;49449;48.800;9.534;2022-09-09T01:38:35;98213.25;;;15.48;41.57
63321;BME280;49449;48.800;9.534;2022-09-09T01:41:04;98217.25;;;15.51;41.56
63321;BME280;49449;48.800;9.534;2022-09-09T01:43:33;98218.84;;;15.52;41.52
63321;BME280;49449;48.800;9.534;2022-09-09T01:46:01;98210.84;;;15.52;41.76
63321;BME280;49449;48.800;9.534;2022-09-09T01:48:29;98217.25;;;15.51;41.26
63321;BME280;49449;48.800;9.534;2022-09-09T01:50:57;98224.97;;;15.52;41.27
63321;BME280;49449;48.800;9.534;2022-09-09T01:53:25;98223.09;;;15.53;41.68
63321;BME280;49449;48.800;9.534;2022-09-09T01:56:02;98226.00;;;15.46;41.35
63321;BME280;49449;48.800;9.534;2022-09-09T01:58:43;98225.75;;;15.43;41.83
63321;BME280;49449;48.800;9.534;2022-09-09T02:01:20;98228.69;;;15.31;42.15
63321;BME280;49449;48.800;9.534;2022-09-09T02:03:53;98218.31;;;15.29;41.99
63321;BME280;49449;48.800;9.534;2022-09-09T02:06:27;98211.09;;;15.25;42.25
63321;BME280;49449;48.800;9.534;2022-09-09T02:09:00;98214.56;;;15.20;42.51
63321;BME280;49449;48.800;9.534;2022-09-09T02:11:30;98212.69;;;15.26;42.47
63321;BME280;49449;48.800;9.534;2022-09-09T02:14:01;98212.44;;;15.17;42.58
63321;BME280;49449;48.800;9.534;2022-09-09T02:16:32;98213.22;;;15.18;42.46
63321;BME280;49449;48.800;9.534;2022-09-09T02:19:06;98215.63;;;15.19;42.76
63321;BME280;49449;48.800;9.534;2022-09-09T02:21:41;98217.22;;;15.20;42.74
63321;BME280;49449;48.800;9.534;2022-09-09T02:24:11;98207.63;;;15.24;42.45
63321;BME280;49449;48.800;9.534;2022-09-09T02:26:41;98207.09;;;15.22;42.65
63321;BME280;49449;48.800;9.534;2022-09-09T02:29:15;98210.31;;;15.24;42.46
63321;BME280;49449;48.800;9.534;2022-09-09T02:31:45;98204.72;;;15.21;42.29
63321;BME280;49449;48.800;9.534;2022-09-09T02:34:17;98209.50;;;15.19;42.54
63321;BME280;49449;48.800;9.534;2022-09-09T02:36:46;98206.03;;;15.23;42.30
63321;BME280;49449;48.800;9.534;2022-09-09T02:39:15;98207.63;;;15.24;42.18
63321;BME280;49449;48.800;9.534;2022-09-09T02:41:43;98211.34;;;15.23;42.26
63321;BME280;49449;48.800;9.534;2022-09-09T02:44:13;98211.63;;;15.22;42.40
63321;BME280;49449;48.800;9.534;2022-09-09T02:46:57;98210.56;;;15.12;42.41
63321;BME280;49449;48.800;9.534;2022-09-09T02:49:31;98205.22;;;15.12;42.41
63321;BME280;49449;48.800;9.534;2022-09-09T02:52:06;98209.22;;;15.10;42.79
63321;BME280;49449;48.800;9.534;2022-09-09T02:54:35;98214.28;;;15.01;42.59
63321;BME280;49449;48.800;9.534;2022-09-09T02:57:09;98213.47;;;14.95;42.56
63321;BME280;49449;48.800;9.534;2022-09-09T02:59:40;98222.25;;;14.91;42.88
63321;BME280;49449;48.800;9.534;2022-09-09T03:02:08;98221.97;;;14.92;42.83
63321;BME280;49449;48.800;9.534;2022-09-09T03:04:37;98204.69;;;14.95;42.50
63321;BME280;49449;48.800;9.534;2022-09-09T03:07:06;98200.72;;;14.98;42.55
63321;BME280;49449;48.800;9.534;2022-09-09T03:09:33;98206.03;;;14.92;42.77
63321;BME280;49449;48.800;9.534;2022-09-09T03:12:01;98216.91;;;14.81;43.01
63321;BME280;49449;48.800;9.534;2022-09-09T03:14:30;98220.34;;;14.81;42.77
63321;BME280;49449;48.800;9.534;2022-09-09T03:16:59;98214.25;;;14.81;42.77
63321;BME280;49449;48.800;9.534;2022-09-09T03:19:28;98216.09;;;14.80;42.44
63321;BME280;49449;48.800;9.534;2022-09-09T03:21:56;98229.91;;;14.77;42.64
63321;BME280;49449;48.800;9.534;2022-09-09T03:24:24;98230.44;;;14.74;42.93
63321;BME280;49449;48.800;9.534;2022-09-09T03:26:52;98225.38;;;14.72;43.00
63321;BME280;49449;48.800;9.534;2022-09-09T03:29:22;98225.94;;;14.74;42.70
63321;BME280;49449;48.800;9.534;2022-09-09T03:31:49;98222.47;;;14.79;42.67
63321;BME280;49449;48.800;9.534;2022-09-09T03:34:18;98218.25;;;14.83;42.68
63321;BME280;49449;48.800;9.534;2022-09-09T03:36:46;98225.69;;;14.86;42.38
63321;BME280;49449;48.800;9.534;2022-09-09T03:39:15;98223.03;;;14.86;42.23
63321;BME280;49449;48.800;9.534;2022-09-09T03:41:43;98224.63;;;14.87;42.58
63321;BME280;49449;48.800;9.534;2022-09-09T03:44:12;98227.31;;;14.92;42.25
63321;BME280;49449;48.800;9.534;2022-09-09T03:46:40;98222.50;;;14.94;42.27
63321;BME280;49449;48.800;9.534;2022-09-09T03:49:07;98221.47;;;14.95;42.39
63321;BME280;49449;48.800;9.534;2022-09-09T03:51:38;98209.75;;;14.96;42.36
63321;BME280;49449;48.800;9.534;2022-09-09T03:54:06;98220.38;;;14.91;42.43
63321;BME280;49449;48.800;9.534;2022-09-09T03:56:36;98225.69;;;14.91;42.34
63321;BME280;49449;48.800;9.534;2022-09-09T03:59:04;98219.06;;;14.94;42.25
63321;BME280;49449;48.800;9.534;2022-09-09T04:01:32;98213.75;;;14.94;42.51
63321;BME280;49449;48.800;9.534;2022-09-09T04:04:00;98217.19;;;14.89;42.36
63321;BME280;49449;48.800;9.534;2022-09-09T04:06:28;98207.59;;;14.93;42.40
63321;BME280;49449;48.800;9.534;2022-09-09T04:08:58;98197.53;;;14.95;42.17
63321;BME280;49449;48.800;9.534;2022-09-09T04:11:26;98196.44;;;14.96;42.50
63321;BME280;49449;48.800;9.534;2022-09-09T04:13:53;98193.78;;;14.96;42.43
63321;BME280;49449;48.800;9.534;2022-09-09T04:16:21;98194.59;;;14.92;42.62
63321;BME280;49449;48.800;9.534;2022-09-09T04:18:49;98201.50;;;14.93;42.63
63321;BME280;49449;48.800;9.534;2022-09-09T04:21:16;98192.72;;;14.87;42.90
63321;BME280;49449;48.800;9.534;2022-09-09T04:23:44;98203.88;;;14.84;42.49
63321;BME280;49449;48.800;9.534;2022-09-09T04:26:13;98208.94;;;14.91;42.33
63321;BME280;49449;48.800;9.534;2022-09-09T04:28:41;98209.19;;;14.89;42.43
63321;BME280;49449;48.800;9.534;2022-09-09T04:31:12;98197.25;;;14.87;42.31
63321;BME280;49449;48.800;9.534;2022-09-09T04:33:42;98195.13;;;14.89;42.10
63321;BME280;49449;48.800;9.534;2022-09-09T04:36:09;98205.22;;;14.87;42.37
63321;BME280;49449;48.800;9.534;2022-09-09T04:38:37;98208.91;;;14.81;42.34
63321;BME280;49449;48.800;9.534;2022-09-09T04:41:05;98217.13;;;14.74;42.55
63321;BME280;49449;48.800;9.534;2022-09-09T04:43:35;98212.91;;;14.73;42.47
63321;BME280;49449;48.800;9.534;2022-09-09T04:46:03;98219.53;;;14.75;42.56
63321;BME280;49449;48.800;9.534;2022-09-09T04:48:31;98219.53;;;14.75;42.27
63321;BME280;49449;48.800;9.534;2022-09-09T04:51:01;98219.00;;;14.73;42.42
63321;BME280;49449;48.800;9.534;2022-09-09T04:53:30;98234.19;;;14.78;42.55
63321;BME280;49449;48.800;9.534;2022-09-09T04:56:02;98232.00;;;14.65;42.56
63321;BME280;49449;48.800;9.534;2022-09-09T04:58:30;98232.56;;;14.72;42.34
63321;BME280;49449;48.800;9.534;2022-09-09T05:01:07;98228.03;;;14.72;42.54
63321;BME280;49449;48.800;9.534;2022-09-09T05:03:36;98237.59;;;14.63;42.77
63321;BME280;49449;48.800;9.534;2022-09-09T05:06:06;98240.50;;;14.62;42.95
63321;BME280;49449;48.800;9.534;2022-09-09T05:08:35;98242.88;;;14.58;42.66
63321;BME280;49449;48.800;9.534;2022-09-09T05:11:03;98243.72;;;14.64;42.82
63321;BME280;49449;48.800;9.534;2022-09-09T05:13:31;98252.25;;;14.66;42.87
63321;BME280;49449;48.800;9.534;2022-09-09T05:15:58;98251.16;;;14.67;42.53
63321;BME280;49449;48.800;9.534;2022-09-09T05:18:28;98246.09;;;14.60;42.94
63321;BME280;49449;48.800;9.534;2022-09-09T05:21:00;98247.16;;;14.59;43.28
63321;BME280;49449;48.800;9.534;2022-09-09T05:23:28;98247.94;;;14.59;43.00
63321;BME280;49449;48.800;9.534;2022-09-09T05:25:56;98254.34;;;14.69;42.92
63321;BME280;49449;48.800;9.534;2022-09-09T05:28:24;98252.53;;;14.74;43.01
63321;BME280;49449;48.800;9.534;2022-09-09T05:30:56;98259.41;;;14.70;43.23
63321;BME280;49449;48.800;9.534;2022-09-09T05:33:24;98258.63;;;14.70;43.03
63321;BME280;49449;48.800;9.534;2022-09-09T05:35:58;98261.03;;;14.76;42.93
63321;BME280;49449;48.800;9.534;2022-09-09T05:38:27;98259.72;;;14.84;43.18
63321;BME280;49449;48.800;9.534;2022-09-09T05:40:55;98257.88;;;14.90;42.81
63321;BME280;49449;48.800;9.534;2022-09-09T05:43:23;98255.75;;;14.97;42.34
63321;BME280;49449;48.800;9.534;2022-09-09T05:46:02;98257.63;;;15.02;42.54
63321;BME280;49449;48.800;9.534;2022-09-09T05:48:31;98260.56;;;15.10;42.44
63321;BME280;49449;48.800;9.534;2022-09-09T05:51:02;98264.84;;;15.17;42.35
63321;BME280;49449;48.800;9.534;2022-09-09T05:53:30;98258.44;;;15.18;42.23
63321;BME280;49449;48.800;9.534;2022-09-09T05:56:02;98253.19;;;15.28;42.01
63321;BME280;49449;48.800;9.534;2022-09-09T05:58:30;98258.78;;;15.47;41.55
63321;BME280;49449;48.800;9.534;2022-09-09T06:01:03;98250.75;;;15.67;41.58
63321;BME280;49449;48.800;9.534;2022-09-09T06:03:34;98256.09;;;15.72;41.55
63321;BME280;49449;48.800;9.534;2022-09-09T06:06:04;98257.16;;;15.77;41.42
63321;BME280;49449;48.800;9.534;2022-09-09T06:08:33;98266.47;;;15.79;41.23
63321;BME280;49449;48.800;9.534;2022-09-09T06:11:02;98264.59;;;15.90;41.47
63321;BME280;49449;48.800;9.534;2022-09-09T06:13:30;98258.97;;;15.97;41.47
63321;BME280;49449;48.800;9.534;2022-09-09T06:15:58;98260.03;;;16.01;41.34
63321;BME280;49449;48.800;9.534;2022-09-09T06:18:27;98250.72;;;16.03;41.07
63321;BME280;49449;48.800;9.534;2022-09-09T06:20:56;98259.25;;;16.05;41.18
63321;BME280;49449;48.800;9.534;2022-09-09T06:23:26;98256.59;;;16.05;41.46
63321;BME280;49449;48.800;9.534;2022-09-09T06:26:01;98251.00;;;16.07;41.30
63321;BME280;49449;48.800;9.534;2022-09-09T06:28:30;98252.03;;;16.11;41.19
63321;BME280;49449;48.800;9.534;2022-09-09T06:30:59;98252.81;;;16.17;41.30
63321;BME280;49449;48.800;9.534;2022-09-09T06:33:31;98252.56;;;16.13;41.08
63321;BME280;49449;48.800;9.534;2022-09-09T06:36:02;98249.91;;;16.13;41.17
63321;BME280;49449;48.800;9.534;2022-09-09T06:38:32;98255.50;;;16.17;41.17
63321;BME280;49449;48.800;9.534;2022-09-09T06:41:00;98257.34;;;16.21;41.51
63321;BME280;49449;48.800;9.534;2022-09-09T06:43:28;98247.72;;;16.25;41.21
63321;BME280;49449;48.800;9.534;2022-09-09T06:45:57;98248.25;;;16.33;41.19
63321;BME280;49449;48.800;9.534;2022-09-09T06:48:26;98251.16;;;16.36;41.06
63321;BME280;49449;48.800;9.534;2022-09-09T06:51:03;98258.88;;;16.43;41.25
63321;BME280;49449;48.800;9.534;2022-09-09T06:53:33;98253.50;;;16.53;41.33
63321;BME280;49449;48.800;9.534;2022-09-09T06:56:01;98256.16;;;16.58;41.05
63321;BME280;49449;48.800;9.534;2022-09-09T06:58:32;98257.94;;;16.68;41.21
63321;BME280;49449;48.800;9.534;2022-09-09T07:01:04;98262.72;;;16.76;41.01
63321;BME280;49449;48.800;9.534;2022-09-09T07:03:32;98268.31;;;16.85;40.63
63321;BME280;49449;48.800;9.534;2022-09-09T07:06:01;98275.50;;;16.90;40.46
63321;BME280;49449;48.800;9.534;2022-09-09T07:08:30;98265.59;;;16.95;40.42
63321;BME280;49449;48.800;9.534;2022-09-09T07:11:03;98268.75;;;17.02;40.11
63321;BME280;49449;48.800;9.534;2022-09-09T07:13:35;98270.84;;;17.11;40.10
63321;BME280;49449;48.800;9.534;2022-09-09T07:16:04;98280.13;;;17.18;39.99
63321;BME280;49449;48.800;9.534;2022-09-09T07:18:32;98283.00;;;17.27;39.79
63321;BME280;49449;48.800;9.534;2022-09-09T07:21:02;98273.03;;;17.38;39.94
63321;BME280;49449;48.800;9.534;2022-09-09T07:23:33;98283.41;;;17.45;39.81
63321;BME280;49449;48.800;9.534;2022-09-09T07:26:07;98276.94;;;17.51;39.59
63321;BME280;49449;48.800;9.534;2022-09-09T07:28:36;98275.44;;;17.74;39.03
63321;BME280;49449;48.800;9.534;2022-09-09T07:31:05;98268.00;;;17.95;38.51
63321;BME280;49449;48.800;9.534;2022-09-09T07:33:34;98273.09;;;18.21;38.07
63321;BME280;49449;48.800;9.534;2022-09-09T07:36:05;98271.31;;;18.40;37.72
63321;BME280;49449;48.800;9.534;2022-09-09T07:38:37;98272.81;;;18.46;36.81
63321;BME280;49449;48.800;9.534;2022-09-09T07:41:08;98275.09;;;18.58;36.85
63321;BME280;49449;48.800;9.534;2022-09-09T07:43:38;98271.72;;;18.71;36.44
63321;BME280;49449;48.800;9.534;2022-09-09T07:46:09;98280.19;;;18.79;36.31
63321;BME280;49449;48.800;9.534;2022-09-09T07:48:38;98273.88;;;18.88;36.49
63321;BME280;49449;48.800;9.534;2022-09-09T07:51:11;98275.16;;;18.96;36.32
63321;BME280;49449;48.800;9.534;2022-09-09T07:53:43;98272.31;;;19.06;36.56
63321;BME280;49449;48.800;9.534;2022-09-09T07:56:14;98280.00;;;19.13;36.34
63321;BME280;49449;48.800;9.534;2022-09-09T07:58:45;98271.59;;;19.20;36.47
63321;BME280;49449;48.800;9.534;2022-09-09T08:01:18;98279.91;;;19.18;36.33
63321;BME280;49449;48.800;9.534;2022-09-09T08:03:51;98273.50;;;19.19;36.31
63321;BME280;49449;48.800;9.534;2022-09-09T08:06:22;98274.56;;;19.18;36.05
63321;BME280;49449;48.800;9.534;2022-09-09T08:08:51;98279.63;;;19.20;35.81
63321;BME280;49449;48.800;9.534;2022-09-09T08:11:21;98269.63;;;19.25;36.21
63321;BME280;49449;48.800;9.534;2022-09-09T08:13:51;98271.09;;;19.37;36.39
63321;BME280;49449;48.800;9.534;2022-09-09T08:16:22;98280.03;;;19.65;35.82
63321;BME280;49449;48.800;9.534;2022-09-09T08:18:52;98283.16;;;19.86;35.65
63321;BME280;49449;48.800;9.534;2022-09-09T08:21:21;98289.63;;;20.13;35.87
63321;BME280;49449;48.800;9.534;2022-09-09T08:23:51;98286.59;;;20.33;35.23
63321;BME280;49449;48.800;9.534;2022-09-09T08:26:25;98287.25;;;20.53;35.45
63321;BME280;49449;48.800;9.534;2022-09-09T08:28:55;98279.69;;;20.69;35.06
63321;BME280;49449;48.800;9.534;2022-09-09T08:31:25;98287.53;;;20.93;33.83
63321;BME280;49449;48.800;9.534;2022-09-09T08:33:54;98296.75;;;21.01;33.54
63321;BME280;49449;48.800;9.534;2022-09-09T08:36:24;98285.44;;;20.76;33.41
63321;BME280;49449;48.800;9.534;2022-09-09T08:38:54;98284.16;;;20.87;33.82
63321;BME280;49449;48.800;9.534;2022-09-09T08:41:38;98283.47;;;21.18;33.54
63321;BME280;49449;48.800;9.534;2022-09-09T08:44:10;98277.16;;;21.36;33.05
63321;BME280;49449;48.800;9.534;2022-09-09T08:46:48;98277.19;;;21.45;32.68
63321;BME280;49449;48.800;9.534;2022-09-09T08:49:37;98284.31;;;21.50;32.41
63321;BME280;49449;48.800;9.534;2022-09-09T08:52:09;98286.28;;;21.35;32.48
63321;BME280;49449;48.800;9.534;2022-09-09T08:54:42;98286.22;;;21.49;32.73
63321;BME280;49449;48.800;9.534;2022-09-09T08:57:21;98288.75;;;21.46;32.54
63321;BME280;49449;48.800;9.534;2022-09-09T08:59:54;98291.66;;;21.81;32.88
63321;BME280;49449;48.800;9.534;2022-09-09T09:02:27;98294.88;;;21.91;32.24
63321;BME280;49449;48.800;9.534;2022-09-09T09:05:08;98289.03;;;21.89;32.57
63321;BME280;49449;48.800;9.534;2022-09-09T09:07:49;98276.09;;;21.69;32.25
63321;BME280;49449;48.800;9.534;2022-09-09T09:10:30;98292.34;;;21.41;32.30
63321;BME280;49449;48.800;9.534;2022-09-09T09:13:12;98285.56;;;21.44;32.67
63321;BME280;49449;48.800;9.534;2022-09-09T09:15:48;98293.19;;;20.91;33.20
63321;BME280;49449;48.800;9.534;2022-09-09T09:18:20;98292.41;;;20.91;33.09
63321;BME280;49449;48.800;9.534;2022-09-09T09:20:54;98276.75;;;21.07;33.45
63321;BME280;49449;48.800;9.534;2022-09-09T09:23:30;98279.59;;;21.47;33.07
63321;BME280;49449;48.800;9.534;2022-09-09T09:26:07;98275.66;;;21.53;32.29
63321;BME280;49449;48.800;9.534;2022-09-09T09:28:39;98266.59;;;21.63;31.98
63321;BME280;49449;48.800;9.534;2022-09-09T09:31:09;98259.59;;;21.16;32.12
63321;BME280;49449;48.800;9.534;2022-09-09T09:33:45;98260.88;;;21.55;32.40
63321;BME280;49449;48.800;9.534;2022-09-09T09:36:14;98258.19;;;21.64;32.20
63321;BME280;49449;48.800;9.534;2022-09-09T09:38:55;98253.38;;;21.75;31.62
63321;BME280;49449;48.800;9.534;2022-09-09T09:41:43;98259.78;;;21.43;31.67
63321;BME280;49449;48.800;9.534;2022-09-09T09:44:23;98249.84;;;20.98;31.19
63321;BME280;49449;48.800;9.534;2022-09-09T09:46:52;98252.72;;;21.24;31.07
63321;BME280;49449;48.800;9.534;2022-09-09T09:49:21;98262.22;;;21.53;30.71
63321;BME280;49449;48.800;9.534;2022-09-09T09:51:49;98257.63;;;21.53;31.07
63321;BME280;49449;48.800;9.534;2022-09-09T09:54:23;98251.69;;;21.57;30.52
63321;BME280;49449;48.800;9.534;2022-09-09T09:56:55;98252.19;;;21.45;30.62
63321;BME280;49449;48.800;9.534;2022-09-09T09:59:35;98236.91;;;21.45;30.81
63321;BME280;49449;48.800;9.534;2022-09-09T10:02:16;98233.22;;;21.41;30.68
63321;BME280;49449;48.800;9.534;2022-09-09T10:04:46;98240.31;;;21.60;30.59
63321;BME280;49449;48.800;9.534;2022-09-09T10:07:18;98230.53;;;21.95;31.06
63321;BME280;49449;48.800;9.534;2022-09-09T10:09:49;98233.06;;;22.40;30.54
63321;BME280;49449;48.800;9.534;2022-09-09T10:12:33;98229.16;;;22.73;28.47
63321;BME280;49449;48.800;9.534;2022-09-09T10:15:09;98214.59;;;23.00;26.41
63321;BME280;49449;48.800;9.534;2022-09-09T10:17:54;98210.63;;;23.15;26.93
63321;BME280;49449;48.800;9.534;2022-09-09T10:20:32;98219.66;;;23.36;26.37
63321;BME280;49449;48.800;9.534;2022-09-09T10:23:12;98212.31;;;23.46;25.04
63321;BME280;49449;48.800;9.534;2022-09-09T10:26:01;98216.16;;;23.27;25.56
63321;BME280;49449;48.800;9.534;2022-09-09T10:31:23;98219.16;;;23.43;26.52
63321;BME280;49449;48.800;9.534;2022-09-09T10:33:59;98222.78;;;23.30;26.74
63321;BME280;49449;48.800;9.534;2022-09-09T10:36:30;98210.59;;;23.41;26.12
63321;BME280;49449;48.800;9.534;2022-09-09T10:39:01;98214.81;;;23.59;27.13
63321;BME280;49449;48.800;9.534;2022-09-09T10:41:50;98211.00;;;23.69;26.50
63321;BME280;49449;48.800;9.534;2022-09-09T10:44:30;98203.47;;;23.84;25.45
63321;BME280;49449;48.800;9.534;2022-09-09T10:47:28;98200.78;;;23.84;25.98
63321;BME280;49449;48.800;9.534;2022-09-09T10:50:12;98209.25;;;23.65;25.51
63321;BME280;49449;48.800;9.534;2022-09-09T10:52:48;98215.84;;;23.46;25.18
63321;BME280;49449;48.800;9.534;2022-09-09T10:55:20;98224.09;;;22.97;25.78
63321;BME280;49449;48.800;9.534;2022-09-09T10:57:58;98222.16;;;23.24;26.66
63321;BME280;49449;48.800;9.534;2022-09-09T11:00:31;98217.84;;;23.58;26.27
63321;BME280;49449;48.800;9.534;2022-09-09T11:03:05;98212.91;;;23.60;26.47
63321;BME280;49449;48.800;9.534;2022-09-09T11:05:39;98215.56;;;23.77;26.62
63321;BME280;49449;48.800;9.534;2022-09-09T11:08:12;98207.19;;;24.09;25.99
63321;BME280;49449;48.800;9.534;2022-09-09T11:10:45;98213.00;;;24.19;25.55
63321;BME280;49449;48.800;9.534;2022-09-09T11:13:19;98199.78;;;24.27;25.86
63321;BME280;49449;48.800;9.534;2022-09-09T11:15:50;98192.81;;;23.96;25.34
63321;BME280;49449;48.800;9.534;2022-09-09T11:18:23;98191.56;;;23.93;25.96
63321;BME280;49449;48.800;9.534;2022-09-09T11:20:56;98192.91;;;24.08;25.26
63321;BME280;49449;48.800;9.534;2022-09-09T11:23:29;98190.88;;;24.05;25.83
63321;BME280;49449;48.800;9.534;2022-09-09T11:26:05;98179.16;;;24.01;24.29
63321;BME280;49449;48.800;9.534;2022-09-09T11:28:46;98181.69;;;23.59;24.47
63321;BME280;49449;48.800;9.534;2022-09-09T11:31:31;98172.47;;;23.60;24.23
63321;BME280;49449;48.800;9.534;2022-09-09T11:34:13;98170.31;;;23.83;24.24
63321;BME280;49449;48.800;9.534;2022-09-09T11:40:20;98157.63;;;23.92;25.15
63321;BME280;49449;48.800;9.534;2022-09-09T11:43:01;98151.22;;;23.58;24.44
63321;BME280;49449;48.800;9.534;2022-09-09T11:45:32;98160.19;;;23.41;25.19
63321;BME280;49449;48.800;9.534;2022-09-09T11:48:03;98161.84;;;22.81;25.37
63321;BME280;49449;48.800;9.534;2022-09-09T11:50:35;98169.16;;;22.81;25.54
63321;BME280;49449;48.800;9.534;2022-09-09T11:53:20;98186.16;;;22.15;26.34
63321;BME280;49449;48.800;9.534;2022-09-09T11:56:09;98221.16;;;22.33;27.74
63321;BME280;49449;48.800;9.534;2022-09-09T11:58:41;98246.69;;;22.04;28.93
63321;BME280;49449;48.800;9.534;2022-09-09T12:04:16;98311.34;;;21.22;34.17
63321;BME280;49449;48.800;9.534;2022-09-09T12:06:52;98305.50;;;21.29;35.00
63321;BME280;49449;48.800;9.534;2022-09-09T12:09:28;98296.19;;;21.26;35.64
63321;BME280;49449;48.800;9.534;2022-09-09T12:12:17;98299.69;;;21.13;35.29
63321;BME280;49449;48.800;9.534;2022-09-09T12:14:56;98291.56;;;21.04;35.68
63321;BME280;49449;48.800;9.534;2022-09-09T12:17:27;98291.91;;;20.89;35.48
63321;BME280;49449;48.800;9.534;2022-09-09T12:20:13;98286.09;;;21.09;36.19
63321;BME280;49449;48.800;9.534;2022-09-09T12:23:00;98279.16;;;21.31;36.77
63321;BME280;49449;48.800;9.534;2022-09-09T12:25:37;98267.25;;;21.46;37.22
63321;BME280;49449;48.800;9.534;2022-09-09T12:28:15;98271.03;;;21.67;36.95
63321;BME280;49449;48.800;9.534;2022-09-09T12:30:49;98262.13;;;21.58;33.58
63321;BME280;49449;48.800;9.534;2022-09-09T12:33:23;98259.19;;;21.46;33.39
63321;BME280;49449;48.800;9.534;2022-09-09T12:35:54;98264.63;;;21.54;33.85
63321;BME280;49449;48.800;9.534;2022-09-09T12:38:30;98255.38;;;21.69;34.21
63321;BME280;49449;48.800;9.534;2022-09-09T12:41:00;98254.50;;;21.83;34.30
63321;BME280;49449;48.800;9.534;2022-09-09T12:43:28;98255.47;;;21.87;33.82
63321;BME280;49449;48.800;9.534;2022-09-09T12:45:58;98252.31;;;21.85;33.37
63321;BME280;49449;48.800;9.534;2022-09-09T12:48:34;98241.25;;;21.86;31.90
63321;BME280;49449;48.800;9.534;2022-09-09T12:51:05;98244.88;;;21.90;33.79
63321;BME280;49449;48.800;9.534;2022-09-09T12:53:37;98244.72;;;21.87;33.33
63321;BME280;49449;48.800;9.534;2022-09-09T12:56:07;98237.94;;;21.89;32.73
63321;BME280;49449;48.800;9.534;2022-09-09T12:58:38;98231.03;;;21.43;32.50
63321;BME280;49449;48.800;9.534;2022-09-09T13:01:21;98233.91;;;21.24;32.17
63321;BME280;49449;48.800;9.534;2022-09-09T13:03:49;98236.97;;;21.31;33.19
63321;BME280;49449;48.800;9.534;2022-09-09T13:06:20;98225.09;;;21.32;32.53
63321;BME280;49449;48.800;9.534;2022-09-09T13:08:53;98218.09;;;21.45;31.85
63321;BME280;49449;48.800;9.534;2022-09-09T13:11:25;98217.44;;;21.48;31.66
63321;BME280;49449;48.800;9.534;2022-09-09T13:13:56;98213.69;;;21.49;31.82
63321;BME280;49449;48.800;9.534;2022-09-09T13:16:26;98206.41;;;21.50;31.39
63321;BME280;49449;48.800;9.534;2022-09-09T13:18:59;98214.09;;;21.43;30.64
63321;BME280;49449;48.800;9.534;2022-09-09T13:21:32;98221.69;;;21.41;31.17
63321;BME280;49449;48.800;9.534;2022-09-09T13:24:03;98215.22;;;21.42;31.21
63321;BME280;49449;48.800;9.534;2022-09-09T13:26:34;98212.19;;;21.34;31.98
63321;BME280;49449;48.800;9.534;2022-09-09T13:29:16;98211.81;;;21.27;31.08
63321;BME280;49449;48.800;9.534;2022-09-09T13:31:45;98209.63;;;21.29;32.22
63321;BME280;49449;48.800;9.534;2022-09-09T13:34:14;98203.13;;;21.30;31.62
63321;BME280;49449;48.800;9.534;2022-09-09T13:36:59;98200.44;;;21.30;31.16
63321;BME280;49449;48.800;9.534;2022-09-09T13:39:30;98196.06;;;21.34;30.99
63321;BME280;49449;48.800;9.534;2022-09-09T13:41:58;98190.50;;;21.31;32.84
63321;BME280;49449;48.800;9.534;2022-09-09T13:44:27;98187.66;;;21.27;33.43